Aérodrome :







RETROUVEZ-NOUS SUR...

 
LOGIN :

S'inscrire | Disclaimer

   EN    FR    IT 

 









Légende :    VFR   VFR Marginal   IFR   IFR Intensif   IFR Très Intensif
Visi : 
Plafond : 
>= 8 km
>= 3000ft
5 à 8 km
1000 à 3000 ft
1500m à 5 km
500 à 1000 ft
800 à 1500m
200 à 500 ft
< 800m
< 200 ft
Symboles :   Orages  Brouillard  Fortes neiges  Fortes précipitations  Vent > 20 kt






- Altitude de l'aérodrome : 1009 ft
- Code IATA : ORH


KORH - Worcester Regional

DERNIER METAR :
  • 190454Z 34003KT 3SM BR OVC004 M07/M09 A2970 RMK AO2 UPB28E48SNE18 PRESFR SLP076 P0002 I1001 T10721089 410671133

METARs EXPIRÉS :
  • 190430Z VRB03KT 3SM UP BR BKN005 OVC017 M07/M09 A2973 RMK AO2 UPB28SNE18 P0001 T10721089
  • 190414Z 12003KT 2SM -SN BR FEW007 OVC017 M07/M09 A2975 RMK AO2 VIS 1 1/4V4 P0001 T10721089
  • 190354Z 00000KT 1 1/4SM -SN BR OVC013 M08/M09 A2978 RMK AO2 SLP102 P0010 T10781094
  • 190342Z 00000KT 3/4SM R11/5500VP6000FT -SN BR VV011 M08/M09 A2978 RMK AO2 P0008 T10781094
  • 190254Z 07007KT 1/2SM R11/3000V4000FT SN FZFG VV007 M08/M11 A2983 RMK AO2 SLP120 P0009 60027 T10831106 58043
  • 190154Z 09006KT 3/4SM R11/4000V6000FT -SN BR VV008 M09/M11 A2988 RMK AO2 SLP139 P0009 T10891106

TAF KORH
Valide du 19 à 03h jusqu'au 20 à 00h UTC


190231Z 1903/1924 09006KT 3/4SM -SN BR VV008
TEMPO 1903/1904 1/2SM SN FZFG
FM190400 19004KT 1SM -SN BR OVC008
FM190600 22004KT 4SM -FZDZ BR OVC008 WS020/23035KT
FM190900 24006KT P6SM -DZ OVC008
FM191300 27008KT P6SM BKN015
FM191500 27010G25KT P6SM SCT080



MET'MAP, la Météo Aéronautique d'un coup d'oeil ! - Copyright ORBIFLY Décembre 2007 - Disclaimer

ORBIFLY MET'MAP TEAM :

Programmation & Développement : Alexandra Zaïnal
Sur une idée originale de : Baudouin d'Aumeries
Assistance à la programmation : Marc-Olivier Méhu
Soutien technique & logistique : Manuel Goepfert

Contact : metmap@orbifly.com




SOURCES & CREDITS :

   NOAA